createdAt,value
2023-06-01T00:02:27.273Z,99.90
2023-06-01T00:04:54.466Z,99.90
2023-06-01T00:07:22.133Z,99.90
2023-06-01T00:09:49.381Z,99.90
2023-06-01T00:12:16.513Z,99.90
2023-06-01T00:14:43.482Z,99.90
2023-06-01T00:17:10.766Z,99.90
2023-06-01T00:19:39.737Z,99.90
2023-06-01T00:22:08.440Z,99.90
2023-06-01T00:24:36.126Z,99.90
2023-06-01T00:27:03.500Z,99.90
2023-06-01T00:29:30.944Z,99.90
2023-06-01T00:31:57.973Z,99.90
2023-06-01T00:34:25.364Z,99.90
2023-06-01T00:36:52.277Z,99.90
2023-06-01T00:39:19.870Z,99.90
2023-06-01T00:41:46.884Z,99.90
2023-06-01T00:44:13.776Z,99.90
2023-06-01T00:46:40.932Z,99.90
2023-06-01T00:49:08.273Z,99.90
2023-06-01T00:51:36.470Z,99.90
2023-06-01T00:54:03.558Z,99.90
2023-06-01T00:56:32.565Z,99.90
2023-06-01T00:59:00.429Z,99.90
2023-06-01T01:01:27.423Z,99.90
2023-06-01T01:03:58.856Z,99.90
2023-06-01T01:06:38.989Z,99.90
2023-06-01T01:09:42.585Z,99.90
2023-06-01T01:12:24.197Z,99.90
2023-06-01T01:15:02.541Z,99.90
2023-06-01T01:17:39.745Z,99.90
2023-06-01T01:20:13.511Z,99.90
2023-06-01T01:22:40.494Z,99.90
2023-06-01T01:25:50.570Z,99.90
2023-06-01T01:28:42.555Z,99.90
2023-06-01T01:31:13.505Z,99.90
2023-06-01T01:33:42.216Z,99.90
2023-06-01T01:36:11.094Z,99.90
2023-06-01T01:38:38.339Z,99.90
2023-06-01T01:41:05.931Z,99.90
2023-06-01T01:43:32.893Z,99.90
2023-06-01T01:46:26.430Z,99.90
2023-06-01T01:49:11.357Z,99.90
2023-06-01T01:51:54.941Z,99.90
2023-06-01T01:54:23.120Z,99.90
2023-06-01T01:56:51.646Z,99.90
2023-06-01T01:59:19.621Z,99.90
2023-06-01T02:01:48.116Z,99.90
2023-06-01T02:04:15.030Z,99.90
2023-06-01T02:06:41.874Z,99.90
2023-06-01T02:09:09.685Z,99.90
2023-06-01T02:11:36.967Z,99.90
2023-06-01T02:14:04.449Z,99.90
2023-06-01T02:16:31.555Z,99.90
2023-06-01T02:19:01.405Z,99.90
2023-06-01T02:21:28.384Z,99.90
2023-06-01T02:23:55.714Z,99.90
2023-06-01T02:26:22.636Z,99.90
2023-06-01T02:28:49.592Z,99.90
2023-06-01T02:31:16.604Z,99.90
2023-06-01T02:33:43.479Z,99.90
2023-06-01T02:36:11.266Z,99.90
2023-06-01T02:38:38.218Z,99.90
2023-06-01T02:41:05.229Z,99.90
2023-06-01T02:43:35.562Z,99.90
2023-06-01T02:46:02.958Z,99.90
2023-06-01T02:48:30.155Z,99.90
2023-06-01T02:50:57.109Z,99.90
2023-06-01T02:53:24.166Z,99.90
2023-06-01T02:55:51.009Z,99.90
2023-06-01T02:58:17.937Z,99.90
2023-06-01T03:00:44.943Z,99.90
2023-06-01T03:03:12.994Z,99.90
2023-06-01T03:05:40.764Z,99.90
2023-06-01T03:08:07.631Z,99.90
2023-06-01T03:10:34.492Z,99.90
2023-06-01T03:13:01.437Z,99.90
2023-06-01T03:15:28.443Z,99.90
2023-06-01T03:17:55.494Z,99.90
2023-06-01T03:20:22.483Z,99.90
2023-06-01T03:22:49.422Z,99.90
2023-06-01T03:25:17.607Z,99.90
2023-06-01T03:27:44.680Z,99.90
2023-06-01T03:30:12.711Z,99.90
2023-06-01T03:32:43.846Z,99.90
2023-06-01T03:35:12.342Z,99.90
2023-06-01T03:37:41.646Z,99.90
2023-06-01T03:40:12.666Z,99.90
2023-06-01T03:42:47.330Z,99.90
2023-06-01T03:45:17.543Z,99.90
2023-06-01T03:47:44.694Z,99.90
2023-06-01T03:50:12.506Z,99.90
2023-06-01T03:52:39.658Z,99.90
2023-06-01T03:55:10.970Z,99.90
2023-06-01T03:57:38.874Z,99.90
2023-06-01T04:00:18.787Z,99.90
2023-06-01T04:02:57.875Z,99.90
2023-06-01T04:05:27.045Z,99.90
2023-06-01T04:07:56.106Z,99.90
2023-06-01T04:10:23.495Z,99.90
2023-06-01T04:12:51.470Z,99.90
2023-06-01T04:15:20.496Z,99.90
2023-06-01T04:17:47.970Z,99.90
2023-06-01T04:20:16.949Z,99.90
2023-06-01T04:22:45.550Z,99.90
2023-06-01T04:25:19.257Z,99.90
2023-06-01T04:27:48.899Z,99.90
2023-06-01T04:30:17.670Z,99.90
2023-06-01T04:32:46.878Z,99.90
2023-06-01T04:35:13.977Z,99.90
2023-06-01T04:37:41.988Z,99.90
2023-06-01T04:40:13.301Z,99.90
2023-06-01T04:42:42.685Z,99.90
2023-06-01T04:45:10.974Z,99.90
2023-06-01T04:47:41.184Z,99.90
2023-06-01T04:50:12.178Z,99.90
2023-06-01T04:52:40.092Z,99.90
2023-06-01T04:55:08.158Z,99.90
2023-06-01T04:57:36.822Z,99.90
2023-06-01T05:00:12.478Z,99.90
2023-06-01T05:02:40.215Z,99.90
2023-06-01T05:05:08.751Z,99.90
2023-06-01T05:07:37.633Z,99.90
2023-06-01T05:10:07.181Z,99.90
2023-06-01T05:12:34.773Z,99.90
2023-06-01T05:15:03.771Z,99.90
2023-06-01T05:17:30.715Z,99.90
2023-06-01T05:19:58.231Z,99.90
2023-06-01T05:22:25.853Z,99.90
2023-06-01T05:24:52.893Z,99.90
2023-06-01T05:27:19.900Z,99.90
2023-06-01T05:29:46.825Z,99.90
2023-06-01T05:32:13.812Z,99.90
2023-06-01T05:34:40.786Z,99.90
2023-06-01T05:37:07.677Z,99.90
2023-06-01T05:39:34.552Z,99.90
2023-06-01T05:42:01.779Z,99.90
2023-06-01T05:44:28.673Z,99.90
2023-06-01T05:46:55.577Z,99.90
2023-06-01T05:49:22.488Z,99.90
2023-06-01T05:51:49.462Z,99.90
2023-06-01T05:54:16.449Z,99.90
2023-06-01T05:56:43.342Z,99.90
2023-06-01T05:59:10.479Z,99.90
2023-06-01T06:01:37.633Z,99.90
2023-06-01T06:04:04.910Z,99.90
2023-06-01T06:06:32.672Z,99.90
2023-06-01T06:09:00.017Z,99.90
2023-06-01T06:11:27.132Z,99.90
2023-06-01T06:13:54.200Z,99.90
2023-06-01T06:16:21.230Z,99.90
2023-06-01T06:18:48.306Z,99.90
2023-06-01T06:21:17.582Z,99.90
2023-06-01T06:23:46.477Z,99.90
2023-06-01T06:26:13.431Z,99.90
2023-06-01T06:28:40.289Z,99.90
2023-06-01T06:31:07.333Z,99.90
2023-06-01T06:33:34.190Z,99.90
2023-06-01T06:36:01.130Z,99.90
2023-06-01T06:38:28.025Z,99.90
2023-06-01T06:40:55.082Z,99.90
2023-06-01T06:43:22.018Z,99.90
2023-06-01T06:45:48.965Z,99.90
2023-06-01T06:48:16.300Z,99.90
2023-06-01T06:50:45.351Z,99.90
2023-06-01T06:53:12.905Z,99.90
2023-06-01T06:55:39.820Z,99.90
2023-06-01T06:58:06.866Z,99.90
2023-06-01T07:00:33.781Z,99.90
2023-06-01T07:03:01.589Z,99.90
2023-06-01T07:05:28.668Z,99.90
2023-06-01T07:07:57.826Z,99.90
2023-06-01T07:10:26.514Z,99.90
2023-06-01T07:12:53.524Z,99.90
2023-06-01T07:15:20.577Z,99.90
2023-06-01T07:17:47.588Z,99.50
2023-06-01T07:20:14.517Z,97.00
2023-06-01T07:22:41.665Z,92.00
2023-06-01T07:25:10.125Z,88.70
2023-06-01T07:27:38.413Z,82.50
2023-06-01T07:30:06.172Z,82.20
2023-06-01T07:32:33.234Z,82.10
2023-06-01T07:35:00.482Z,77.80
2023-06-01T07:37:28.236Z,71.50
2023-06-01T07:39:57.887Z,70.20
2023-06-01T07:42:24.860Z,67.00
2023-06-01T07:44:52.221Z,66.60
2023-06-01T07:47:19.130Z,67.10
2023-06-01T07:49:46.212Z,69.20
2023-06-01T07:52:13.118Z,67.80
2023-06-01T07:54:40.038Z,68.80
2023-06-01T07:57:07.615Z,64.60
2023-06-01T07:59:34.524Z,62.70
2023-06-01T08:02:02.144Z,61.00
2023-06-01T08:04:34.265Z,61.10
2023-06-01T08:07:04.238Z,59.10
2023-06-01T08:09:31.935Z,57.90
2023-06-01T08:11:59.102Z,57.70
2023-06-01T08:14:26.423Z,56.30
2023-06-01T08:16:53.390Z,55.80
2023-06-01T08:19:20.455Z,54.70
2023-06-01T08:21:47.493Z,54.30
2023-06-01T08:24:14.487Z,53.40
2023-06-01T08:26:42.246Z,54.10
2023-06-01T08:29:09.434Z,53.40
2023-06-01T08:31:38.091Z,53.00
2023-06-01T08:34:05.760Z,53.90
2023-06-01T08:36:32.878Z,52.80
2023-06-01T08:38:59.752Z,51.50
2023-06-01T08:41:46.129Z,50.70
2023-06-01T08:44:15.602Z,49.00
2023-06-01T08:46:43.160Z,49.10
2023-06-01T08:49:12.857Z,48.30
2023-06-01T08:51:42.245Z,47.00
2023-06-01T08:54:10.620Z,44.80
2023-06-01T08:56:43.286Z,45.40
2023-06-01T08:59:12.577Z,47.10
2023-06-01T09:01:40.131Z,46.50
2023-06-01T09:04:07.336Z,47.90
2023-06-01T09:06:34.503Z,48.70
2023-06-01T09:09:01.509Z,50.00
2023-06-01T09:11:28.496Z,51.30
2023-06-01T09:13:55.536Z,51.50
2023-06-01T09:16:22.672Z,50.70
2023-06-01T09:18:54.462Z,50.30
2023-06-01T09:21:22.119Z,51.80
2023-06-01T09:23:49.090Z,52.20
2023-06-01T09:26:16.422Z,52.80
2023-06-01T09:28:56.929Z,50.90
2023-06-01T09:31:40.989Z,51.20
2023-06-01T09:34:09.802Z,52.70
2023-06-01T09:36:37.375Z,51.80
2023-06-01T09:39:06.604Z,53.10
2023-06-01T09:42:12.168Z,52.50
2023-06-01T09:44:41.554Z,53.90
2023-06-01T09:47:11.914Z,54.10
2023-06-01T09:49:40.857Z,53.00
2023-06-01T09:52:07.686Z,53.60
2023-06-01T09:54:59.761Z,54.00
2023-06-01T09:57:30.300Z,53.30
2023-06-01T09:59:57.606Z,54.30
2023-06-01T10:02:25.344Z,53.70
2023-06-01T10:04:59.827Z,54.40
2023-06-01T10:07:31.817Z,54.10
2023-06-01T10:10:01.358Z,53.90
2023-06-01T10:12:29.435Z,53.40
2023-06-01T10:14:59.579Z,55.00
2023-06-01T10:17:27.609Z,56.90
2023-06-01T10:19:56.937Z,59.80
2023-06-01T10:22:24.236Z,61.10
2023-06-01T10:24:55.673Z,62.20
2023-06-01T10:27:28.015Z,60.60
2023-06-01T10:29:55.473Z,65.20
2023-06-01T10:32:45.682Z,68.20
2023-06-01T10:35:27.696Z,66.60
2023-06-01T10:38:24.545Z,68.00
2023-06-01T10:40:51.842Z,68.60
2023-06-01T10:43:48.314Z,72.20
2023-06-01T10:46:36.902Z,69.80
2023-06-01T10:49:05.068Z,71.80
2023-06-01T10:51:32.435Z,71.30
2023-06-01T10:54:30.189Z,72.10
2023-06-01T10:57:19.877Z,71.30
2023-06-01T11:00:32.878Z,73.50
2023-06-01T11:03:01.004Z,73.80
2023-06-01T11:05:48.184Z,74.80
2023-06-01T11:08:18.618Z,75.60
2023-06-01T11:10:55.091Z,76.80
2023-06-01T11:13:31.159Z,74.90
2023-06-01T11:16:19.968Z,78.30
2023-06-01T11:19:00.545Z,79.10
2023-06-01T11:21:36.729Z,76.90
2023-06-01T11:24:12.010Z,77.40
2023-06-01T11:26:40.261Z,78.10
2023-06-01T11:29:08.874Z,76.80
2023-06-01T11:31:38.545Z,79.30
2023-06-01T11:34:05.982Z,75.80
2023-06-01T11:36:37.926Z,75.00
2023-06-01T11:39:19.975Z,75.30
2023-06-01T11:41:48.376Z,75.40
2023-06-01T11:44:15.529Z,77.40
2023-06-01T11:46:57.296Z,74.40
2023-06-01T11:49:24.798Z,76.60
2023-06-01T11:51:52.496Z,79.60
2023-06-01T11:54:27.769Z,76.90
2023-06-01T11:56:58.340Z,78.00
2023-06-01T11:59:26.532Z,76.00
2023-06-01T12:01:54.528Z,75.30
2023-06-01T12:04:26.720Z,78.40
2023-06-01T12:07:07.982Z,80.70
2023-06-01T12:09:36.746Z,79.60
2023-06-01T12:12:05.144Z,77.20
2023-06-01T12:14:32.234Z,75.50
2023-06-01T12:17:00.145Z,78.10
2023-06-01T12:19:28.269Z,78.00
2023-06-01T12:21:58.143Z,78.20
2023-06-01T12:24:34.685Z,79.00
2023-06-01T12:27:03.170Z,74.40
2023-06-01T12:29:40.322Z,76.50
2023-06-01T12:32:08.516Z,78.00
2023-06-01T12:34:39.484Z,76.40
2023-06-01T12:37:20.378Z,77.10
2023-06-01T12:39:55.230Z,74.90
2023-06-01T12:42:41.941Z,75.00
2023-06-01T12:45:10.080Z,77.40
2023-06-01T12:47:41.297Z,77.20
2023-06-01T12:50:11.018Z,75.40
2023-06-01T12:52:38.715Z,74.60
2023-06-01T12:55:06.958Z,74.60
2023-06-01T12:57:34.933Z,74.70
2023-06-01T13:00:02.780Z,75.10
2023-06-01T13:02:30.671Z,73.70
2023-06-01T13:05:00.766Z,74.60
2023-06-01T13:07:27.744Z,75.70
2023-06-01T13:09:54.612Z,74.30
2023-06-01T13:12:21.613Z,75.60
2023-06-01T13:14:48.758Z,77.80
2023-06-01T13:17:15.629Z,75.70
2023-06-01T13:19:44.368Z,74.10
2023-06-01T13:22:12.273Z,74.00
2023-06-01T13:24:58.508Z,76.50
2023-06-01T13:27:26.400Z,75.00
2023-06-01T13:29:53.423Z,73.70
2023-06-01T13:32:20.485Z,73.50
2023-06-01T13:34:47.564Z,73.40
2023-06-01T13:37:14.813Z,74.80
2023-06-01T13:39:41.726Z,76.60
2023-06-01T13:42:08.880Z,75.00
2023-06-01T13:44:35.837Z,73.60
2023-06-01T13:47:03.047Z,75.90
2023-06-01T13:49:30.164Z,76.80
2023-06-01T13:51:57.380Z,75.60
2023-06-01T13:54:24.379Z,74.60
2023-06-01T13:56:51.364Z,73.60
2023-06-01T13:59:18.306Z,74.20
2023-06-01T14:01:45.232Z,75.30
2023-06-01T14:04:12.315Z,73.70
2023-06-01T14:06:39.292Z,73.20
2023-06-01T14:09:06.544Z,73.70
2023-06-01T14:11:33.454Z,73.30
2023-06-01T14:14:00.380Z,73.60
2023-06-01T14:16:27.291Z,75.20
2023-06-01T14:18:54.278Z,76.70
2023-06-01T14:21:21.191Z,74.30
2023-06-01T14:23:48.416Z,73.20
2023-06-01T14:26:15.309Z,73.60
2023-06-01T14:28:42.305Z,73.80
2023-06-01T14:31:09.408Z,73.80
2023-06-01T14:33:37.303Z,76.20
2023-06-01T14:36:05.862Z,73.80
2023-06-01T14:38:32.830Z,73.70
2023-06-01T14:41:00.531Z,74.50
2023-06-01T14:43:27.786Z,73.40
2023-06-01T14:45:54.625Z,72.90
2023-06-01T14:48:21.665Z,72.60
2023-06-01T14:50:48.624Z,73.20
2023-06-01T14:53:15.576Z,73.40
2023-06-01T14:55:42.502Z,74.50
2023-06-01T14:58:09.930Z,73.20
2023-06-01T15:00:38.047Z,71.90
2023-06-01T15:03:05.622Z,73.60
2023-06-01T15:05:32.936Z,73.70
2023-06-01T15:08:00.138Z,73.30
2023-06-01T15:10:27.611Z,74.30
2023-06-01T15:12:54.611Z,72.60
2023-06-01T15:15:21.577Z,72.60
2023-06-01T15:17:48.614Z,73.00
2023-06-01T15:20:16.152Z,73.50
2023-06-01T15:22:43.006Z,73.60
2023-06-01T15:25:10.205Z,72.80
2023-06-01T15:27:37.214Z,72.40
2023-06-01T15:30:05.217Z,74.20
2023-06-01T15:32:32.878Z,74.80
2023-06-01T15:34:59.880Z,73.60
2023-06-01T15:37:26.853Z,72.30
2023-06-01T15:39:54.129Z,72.90
2023-06-01T15:42:21.132Z,73.50
2023-06-01T15:44:48.008Z,74.70
2023-06-01T15:47:14.926Z,73.80
2023-06-01T15:49:42.396Z,73.20
2023-06-01T15:52:09.632Z,74.40
2023-06-01T15:54:36.776Z,74.20
2023-06-01T15:57:05.241Z,74.10
2023-06-01T15:59:32.395Z,74.90
2023-06-01T16:02:01.683Z,74.80
2023-06-01T16:04:28.728Z,75.30
2023-06-01T16:06:55.999Z,74.50
2023-06-01T16:09:23.055Z,74.80
2023-06-01T16:11:49.950Z,75.00
2023-06-01T16:14:16.800Z,75.40
2023-06-01T16:16:44.532Z,75.40
2023-06-01T16:19:11.911Z,75.40
2023-06-01T16:21:39.061Z,76.00
2023-06-01T16:24:06.441Z,75.00
2023-06-01T16:26:33.378Z,75.80
2023-06-01T16:29:00.589Z,76.50
2023-06-01T16:31:27.643Z,75.80
2023-06-01T16:33:54.673Z,76.50
2023-06-01T16:36:21.572Z,76.70
2023-06-01T16:38:49.516Z,76.30
2023-06-01T16:41:16.927Z,78.00
2023-06-01T16:43:45.709Z,77.30
2023-06-01T16:46:12.842Z,77.50
2023-06-01T16:48:39.796Z,77.90
2023-06-01T16:51:06.812Z,78.30
2023-06-01T16:53:33.697Z,78.50
2023-06-01T16:56:00.830Z,76.80
2023-06-01T16:58:27.901Z,77.10
2023-06-01T17:00:54.774Z,77.00
2023-06-01T17:03:22.153Z,76.40
2023-06-01T17:05:49.068Z,75.80
2023-06-01T17:08:16.486Z,75.30
2023-06-01T17:10:44.641Z,75.20
2023-06-01T17:13:11.536Z,75.70
2023-06-01T17:15:38.645Z,75.40
2023-06-01T17:18:05.698Z,74.90
2023-06-01T17:20:32.851Z,75.90
2023-06-01T17:22:59.800Z,76.00
2023-06-01T17:25:26.727Z,75.10
2023-06-01T17:27:53.856Z,74.90
2023-06-01T17:30:21.054Z,74.80
2023-06-01T17:32:48.077Z,73.90
2023-06-01T17:35:15.111Z,74.50
2023-06-01T17:37:42.394Z,74.50
2023-06-01T17:40:09.925Z,73.60
2023-06-01T17:42:36.928Z,73.50
2023-06-01T17:45:04.216Z,73.10
2023-06-01T17:47:31.281Z,72.90
2023-06-01T17:49:58.272Z,72.60
2023-06-01T17:52:25.182Z,73.00
2023-06-01T17:54:52.480Z,73.10
2023-06-01T17:57:19.475Z,73.20
2023-06-01T17:59:46.449Z,73.40
2023-06-01T18:02:13.356Z,73.20
2023-06-01T18:04:40.361Z,73.40
2023-06-01T18:07:07.461Z,73.70
2023-06-01T18:09:34.443Z,73.70
2023-06-01T18:12:01.459Z,73.50
2023-06-01T18:14:28.747Z,73.50
2023-06-01T18:16:55.903Z,73.90
2023-06-01T18:19:25.569Z,75.30
2023-06-01T18:22:01.606Z,74.60
2023-06-01T18:24:28.503Z,74.70
2023-06-01T18:26:55.438Z,75.70
2023-06-01T18:29:22.309Z,75.30
2023-06-01T18:31:49.869Z,75.30
2023-06-01T18:34:16.835Z,76.20
2023-06-01T18:36:43.775Z,75.50
2023-06-01T18:39:12.708Z,75.60
2023-06-01T18:41:41.064Z,75.10
2023-06-01T18:44:09.637Z,75.00
2023-06-01T18:46:38.634Z,75.70
2023-06-01T18:49:06.322Z,75.30
2023-06-01T18:51:33.550Z,75.70
2023-06-01T18:54:01.374Z,76.30
2023-06-01T18:56:28.999Z,77.30
2023-06-01T18:58:57.313Z,78.50
2023-06-01T19:01:24.377Z,77.20
2023-06-01T19:03:51.558Z,76.90
2023-06-01T19:06:18.832Z,78.00
2023-06-01T19:08:45.789Z,77.40
2023-06-01T19:11:12.731Z,77.20
2023-06-01T19:13:42.369Z,76.90
2023-06-01T19:16:42.800Z,77.50
2023-06-01T19:19:09.952Z,78.10
2023-06-01T19:21:36.919Z,79.20
2023-06-01T19:24:06.924Z,80.80
2023-06-01T19:26:34.810Z,81.40
2023-06-01T19:29:07.130Z,84.30
2023-06-01T19:31:41.181Z,84.70
2023-06-01T19:34:10.414Z,87.20
2023-06-01T19:36:50.722Z,89.50
2023-06-01T19:39:28.849Z,90.80
2023-06-01T19:42:01.441Z,92.50
2023-06-01T19:44:30.545Z,93.70
2023-06-01T19:46:58.622Z,95.30
2023-06-01T19:49:25.620Z,96.70
2023-06-01T19:51:53.281Z,97.50
2023-06-01T19:54:23.060Z,98.50
2023-06-01T19:56:51.716Z,99.00
2023-06-01T19:59:21.623Z,99.70
2023-06-01T20:01:49.370Z,99.90
2023-06-01T20:04:17.308Z,99.90
2023-06-01T20:06:49.091Z,99.90
2023-06-01T20:09:17.930Z,99.90
2023-06-01T20:11:50.835Z,99.90
2023-06-01T20:14:29.863Z,99.90
2023-06-01T20:16:58.697Z,99.90
2023-06-01T20:19:26.067Z,99.90
2023-06-01T20:21:59.346Z,99.90
2023-06-01T20:24:31.335Z,99.90
2023-06-01T20:26:59.492Z,99.90
2023-06-01T20:29:28.512Z,99.90
2023-06-01T20:31:59.812Z,99.90
2023-06-01T20:34:29.868Z,99.90
2023-06-01T20:36:57.235Z,99.90
2023-06-01T20:39:25.808Z,99.90
2023-06-01T20:41:56.665Z,99.90
2023-06-01T20:44:24.006Z,99.90
2023-06-01T20:46:51.976Z,99.90
2023-06-01T20:49:23.585Z,99.90
2023-06-01T20:51:50.561Z,99.90
2023-06-01T20:54:22.015Z,99.90
2023-06-01T20:56:54.114Z,99.90
2023-06-01T20:59:29.372Z,99.90
2023-06-01T21:01:58.670Z,99.90
2023-06-01T21:04:28.331Z,99.90
2023-06-01T21:06:56.332Z,99.90
2023-06-01T21:09:24.305Z,99.90
2023-06-01T21:11:56.700Z,99.90
2023-06-01T21:14:23.789Z,99.90
2023-06-01T21:16:51.364Z,99.90
2023-06-01T21:19:18.540Z,99.90
2023-06-01T21:21:45.728Z,99.90
2023-06-01T21:24:13.467Z,99.90
2023-06-01T21:26:40.722Z,99.90
2023-06-01T21:29:09.901Z,99.90
2023-06-01T21:31:37.189Z,99.90
2023-06-01T21:34:04.272Z,99.90
2023-06-01T21:36:31.262Z,99.90
2023-06-01T21:38:58.305Z,99.90
2023-06-01T21:41:25.938Z,99.90
2023-06-01T21:43:53.089Z,99.90
2023-06-01T21:46:20.105Z,99.90
2023-06-01T21:48:47.248Z,99.90
2023-06-01T21:51:14.246Z,99.90
2023-06-01T21:53:41.262Z,99.90
2023-06-01T21:56:08.596Z,99.90
2023-06-01T21:58:38.829Z,99.90
2023-06-01T22:01:07.055Z,99.90
2023-06-01T22:03:34.978Z,99.90
2023-06-01T22:06:02.620Z,99.90
2023-06-01T22:08:29.809Z,99.90
2023-06-01T22:10:56.818Z,99.90
2023-06-01T22:13:23.983Z,99.90
2023-06-01T22:15:51.010Z,99.90
2023-06-01T22:18:17.970Z,99.90
2023-06-01T22:20:44.935Z,99.90
2023-06-01T22:23:11.912Z,99.90
2023-06-01T22:25:39.088Z,99.90
2023-06-01T22:28:06.708Z,99.90
2023-06-01T22:30:34.060Z,99.90
2023-06-01T22:33:01.803Z,99.90
2023-06-01T22:35:29.012Z,99.90
2023-06-01T22:37:56.250Z,99.90
2023-06-01T22:40:24.710Z,99.90
2023-06-01T22:42:53.604Z,99.90
2023-06-01T22:45:21.438Z,99.90
2023-06-01T22:47:48.961Z,99.90
2023-06-01T22:50:19.510Z,99.90
2023-06-01T22:52:47.721Z,99.90
2023-06-01T22:55:14.867Z,99.90
2023-06-01T22:57:41.885Z,99.90
2023-06-01T23:00:10.644Z,99.90
2023-06-01T23:02:37.667Z,99.90
2023-06-01T23:05:06.259Z,99.90
2023-06-01T23:07:33.648Z,99.90
2023-06-01T23:10:01.322Z,99.90
2023-06-01T23:12:31.498Z,99.90
2023-06-01T23:14:58.500Z,99.90
2023-06-01T23:17:26.561Z,99.90
2023-06-01T23:19:53.678Z,99.90
2023-06-01T23:22:21.507Z,99.90
2023-06-01T23:24:48.545Z,99.90
2023-06-01T23:27:15.495Z,99.90
2023-06-01T23:29:42.621Z,99.90
2023-06-01T23:32:10.682Z,99.90
2023-06-01T23:34:37.990Z,99.90
2023-06-01T23:37:06.540Z,99.90
2023-06-01T23:39:33.705Z,99.90
2023-06-01T23:42:00.855Z,99.90
2023-06-01T23:44:27.915Z,99.90
2023-06-01T23:46:54.886Z,99.90
2023-06-01T23:49:21.841Z,99.90
2023-06-01T23:51:48.876Z,99.90
2023-06-01T23:54:15.908Z,99.90
2023-06-01T23:56:43.002Z,99.90
2023-06-01T23:59:10.622Z,99.90
